Aviation Digital Data Service (ADDS)

Output produced by TAFs form (1803 UTC 28 May 2016)
found at http://www.aviationweather.gov/adds/tafs/
 
KSBY 281728Z 2818/2918 18008KT P6SM SKC 
     FM290400 17004KT P6SM BKN120 
     FM290700 VRB03KT 3SM BR BKN006 
     FM291000 VRB03KT 2SM BR OVC004 
     FM291600 16007KT 4SM BR VCSH OVC015